CNC4 weather

Guelph Airport
Guelph, Ontario, Canada

Public forecast

Using degrees Celsius for public forecast. Weather courtesy of forecast.io.

Closest aviation weather report (METAR) to Guelph Airport

Closest report is Waterloo Airport, 10.1 nm (18.7 km) SW. Retrieved 2020/05/29 01:00 UTC (50 minutes ago):

CYKF 290100Z AUTO 19007KT 9SM FEW044 SCT065 20/18 A2987 RMK SLP112 DENSITY ALT 1900FT

Closest aviation forecast (TAF) to Guelph Airport

Closest forecast is Waterloo Airport, 10.1 nm (18.7 km) SW. Retrieved 2020-05-29 02:42 UTC (0 seconds ago):

TAF TAF CYKF 290138Z 2902/2914 19010KT P6SM BKN020 BKN060 TEMPO 2902/2914 SCT020 BKN060 BECMG 2912/2914 21012G22KT RMK FCST BASED ON AUTO OBS NXT FCST BY 290800Z